Time;durP1;ratioP1;P1;durP2;ratioP2;P2;SDS_P1;SDS_P2;PMS_P1;PMS_P2;Temp;Humidity;BMP_temperature;BMP_pressure;BME280_temperature;BME280_humidity;BME280_pressure;Samples;Min_cycle;Max_cycle;Signal;HPM_P1;HPM_P2
2023/08/04 02:43:15;;;;;;;9.02;7.68;;;;;;;;;;2544819;23;20112;-96
2023/08/04 03:04:15;;;;;;;9.93;8.17;;;;;;;;;;2523019;23;20264;-95
2023/08/04 03:05:16;;;;;;;10.27;8.80;;;;;;;;;;2533411;23;20018;-95
2023/08/04 03:06:16;;;;;;;9.88;8.88;;;;;;;;;;2534019;23;19990;-94
2023/08/04 03:07:17;;;;;;;10.02;8.20;;;;;;;;;;2521239;23;20069;-95
2023/08/04 03:08:17;;;;;;;11.40;8.57;;;;;;;;;;2521546;23;20053;-96
2023/08/04 03:09:21;;;;;;;9.30;8.20;;;;;;;;;;2537443;23;20079;-95
2023/08/04 03:29:19;;;;;;;12.95;7.95;;;;;;;;;;2532165;23;20108;-94
2023/08/04 03:30:20;;;;;;;10.80;8.60;;;;;;;;;;2545956;23;19997;-96
2023/08/04 03:31:20;;;;;;;11.70;8.85;;;;;;;;;;2532775;23;20009;-96
2023/08/04 03:32:21;;;;;;;11.70;8.77;;;;;;;;;;2533204;23;20048;-94
2023/08/04 03:33:22;;;;;;;10.07;9.07;;;;;;;;;;2545209;23;20360;-96
2023/08/04 03:34:23;;;;;;;9.65;8.50;;;;;;;;;;2545517;23;20031;-96
2023/08/04 03:35:23;;;;;;;11.80;8.10;;;;;;;;;;2533132;23;20033;-95
2023/08/04 03:36:24;;;;;;;10.82;7.82;;;;;;;;;;2532928;23;19996;-96
2023/08/04 03:37:25;;;;;;;11.20;8.93;;;;;;;;;;2539855;23;19994;-96
2023/08/04 03:48:55;;;;;;;12.00;8.85;;;;;;;;;;2546464;23;20024;-94
2023/08/04 03:49:56;;;;;;;15.13;9.05;;;;;;;;;;2533622;23;20085;-95
2023/08/04 03:50:56;;;;;;;9.73;8.32;;;;;;;;;;2532923;23;20129;-95
2023/08/04 03:51:57;;;;;;;10.13;9.13;;;;;;;;;;2533413;23;20019;-94
2023/08/04 03:52:58;;;;;;;13.43;8.82;;;;;;;;;;2520997;23;20144;-96
2023/08/04 03:53:58;;;;;;;13.15;8.15;;;;;;;;;;2521046;23;20006;-95
2023/08/04 03:54:59;;;;;;;10.70;8.52;;;;;;;;;;2521116;23;20030;-95
2023/08/04 03:56:00;;;;;;;11.93;8.35;;;;;;;;;;2532743;23;20397;-95
2023/08/04 03:57:01;;;;;;;10.88;7.93;;;;;;;;;;2533109;23;20001;-95
2023/08/04 03:58:19;;;;;;;13.15;8.13;;;;;;;;;;2521323;23;20004;-95
2023/08/04 04:05:27;;;;;;;11.05;8.13;;;;;;;;;;2541338;23;20130;-96
2023/08/04 06:40:07;;;;;;;8.10;6.20;;;;;;;;;;2542109;23;20025;-94
2023/08/04 06:41:07;;;;;;;8.57;6.80;;;;;;;;;;2556860;23;20017;-93
2023/08/04 06:42:08;;;;;;;6.80;6.20;;;;;;;;;;2550362;23;19997;-94
2023/08/04 06:43:08;;;;;;;7.07;6.30;;;;;;;;;;2543237;23;20010;-93
2023/08/04 06:44:09;;;;;;;7.35;6.55;;;;;;;;;;2555596;23;20005;-94
2023/08/04 06:48:40;;;;;;;7.70;6.53;;;;;;;;;;2534438;23;20015;-96
2023/08/04 06:57:46;;;;;;;8.48;6.65;;;;;;;;;;2548724;23;20077;-96
2023/08/04 06:59:47;;;;;;;9.15;6.65;;;;;;;;;;2541306;23;20018;-96
2023/08/04 07:00:47;;;;;;;7.05;6.45;;;;;;;;;;2543408;23;20065;-95
2023/08/04 07:01:48;;;;;;;7.00;5.85;;;;;;;;;;2543690;23;20497;-93
2023/08/04 07:02:49;;;;;;;7.90;6.18;;;;;;;;;;2560281;23;20435;-94
2023/08/04 07:03:49;;;;;;;6.05;5.50;;;;;;;;;;2544178;23;20170;-94
2023/08/04 07:04:50;;;;;;;7.00;6.13;;;;;;;;;;2531965;23;20454;-93
2023/08/04 07:05:50;;;;;;;7.75;6.25;;;;;;;;;;2548080;23;20005;-93
2023/08/04 07:06:51;;;;;;;6.80;6.10;;;;;;;;;;2561208;23;20003;-94
2023/08/04 07:07:54;;;;;;;6.80;5.95;;;;;;;;;;2544125;23;19998;-93
2023/08/04 07:08:55;;;;;;;7.22;6.38;;;;;;;;;;2532945;23;20032;-94
2023/08/04 07:09:55;;;;;;;7.13;6.20;;;;;;;;;;2548776;23;20005;-93
2023/08/04 07:11:01;;;;;;;6.93;6.28;;;;;;;;;;2561931;23;19997;-93
2023/08/04 07:14:00;;;;;;;7.18;5.80;;;;;;;;;;2536080;23;20447;-94
2023/08/04 07:15:00;;;;;;;6.72;5.60;;;;;;;;;;2536131;23;20072;-93
2023/08/04 07:16:01;;;;;;;6.93;6.25;;;;;;;;;;2531725;23;20021;-93
2023/08/04 07:17:01;;;;;;;6.95;6.07;;;;;;;;;;2536161;23;20010;-93
2023/08/04 07:18:02;;;;;;;6.25;5.65;;;;;;;;;;2531818;23;20560;-93
2023/08/04 07:19:03;;;;;;;6.45;5.88;;;;;;;;;;2531961;23;20076;-94
2023/08/04 07:20:10;;;;;;;8.90;6.90;;;;;;;;;;2540041;23;20103;-96
2023/08/04 07:21:13;;;;;;;8.85;5.88;;;;;;;;;;2536032;23;20025;-94
2023/08/04 07:22:13;;;;;;;7.03;6.03;;;;;;;;;;2531826;23;19998;-93
2023/08/04 07:23:14;;;;;;;7.20;6.30;;;;;;;;;;2531965;23;20005;-93
2023/08/04 07:24:14;;;;;;;6.78;6.03;;;;;;;;;;2536084;23;19994;-94
2023/08/04 07:25:15;;;;;;;8.20;6.00;;;;;;;;;;2531748;23;20001;-94
2023/08/04 07:26:15;;;;;;;7.03;6.35;;;;;;;;;;2519596;23;20085;-93
2023/08/04 07:28:13;;;;;;;7.43;5.90;;;;;;;;;;2507756;23;20430;-93
2023/08/04 07:29:13;;;;;;;7.18;5.50;;;;;;;;;;2514645;23;20439;-94
2023/08/04 07:30:15;;;;;;;5.93;5.43;;;;;;;;;;2532221;23;20026;-94
2023/08/04 07:31:16;;;;;;;7.40;5.75;;;;;;;;;;2519653;23;19998;-93
2023/08/04 07:32:17;;;;;;;6.43;5.50;;;;;;;;;;2524007;23;20061;-92
2023/08/04 07:33:18;;;;;;;7.35;5.45;;;;;;;;;;2532613;23;20459;-93
2023/08/04 07:34:18;;;;;;;5.55;5.07;;;;;;;;;;2542642;23;20037;-93
2023/08/04 07:35:19;;;;;;;6.57;5.22;;;;;;;;;;2535817;23;19994;-93
2023/08/04 07:36:19;;;;;;;6.28;5.68;;;;;;;;;;2535956;23;20056;-93
2023/08/04 07:37:19;;;;;;;6.20;5.30;;;;;;;;;;2519602;23;19994;-93
2023/08/04 07:39:15;;;;;;;6.72;5.57;;;;;;;;;;2519487;23;20086;-93
2023/08/04 07:40:16;;;;;;;5.80;5.22;;;;;;;;;;2500495;23;19999;-93
2023/08/04 07:41:18;;;;;;;6.35;5.75;;;;;;;;;;2500573;23;20480;-93
2023/08/04 07:42:18;;;;;;;6.50;5.57;;;;;;;;;;2485248;23;20015;-93
2023/08/04 07:43:19;;;;;;;6.30;5.13;;;;;;;;;;2489726;23;19996;-93
2023/08/04 07:44:19;;;;;;;6.63;5.20;;;;;;;;;;2523880;23;20027;-93
2023/08/04 07:45:20;;;;;;;5.10;4.70;;;;;;;;;;2530969;23;20009;-94
2023/08/04 07:46:25;;;;;;;5.53;5.03;;;;;;;;;;2561548;23;19993;-92
2023/08/04 07:47:26;;;;;;;7.25;5.18;;;;;;;;;;2544302;23;20051;-92
2023/08/04 07:48:26;;;;;;;5.63;5.00;;;;;;;;;;2548577;23;19989;-94
2023/08/04 07:49:27;;;;;;;6.38;5.10;;;;;;;;;;2561684;23;20000;-93
2023/08/04 07:50:27;;;;;;;6.30;5.38;;;;;;;;;;2561764;23;20023;-92
2023/08/04 07:51:28;;;;;;;6.38;5.45;;;;;;;;;;2544180;23;19990;-93
2023/08/04 07:52:28;;;;;;;6.10;5.47;;;;;;;;;;2532186;23;20078;-94
2023/08/04 07:53:29;;;;;;;5.82;5.30;;;;;;;;;;2549184;23;20348;-93
2023/08/04 07:54:29;;;;;;;7.28;5.20;;;;;;;;;;2545071;23;20469;-94
2023/08/04 07:55:34;;;;;;;5.82;5.18;;;;;;;;;;2532505;23;20473;-93
2023/08/04 07:56:34;;;;;;;6.05;5.45;;;;;;;;;;2533278;23;20544;-92
2023/08/04 07:57:35;;;;;;;5.82;5.15;;;;;;;;;;2532190;23;19993;-93
2023/08/04 07:58:35;;;;;;;5.93;5.30;;;;;;;;;;2549668;23;20147;-93
2023/08/04 07:59:36;;;;;;;5.47;4.95;;;;;;;;;;2545654;23;20028;-92
2023/08/04 08:00:36;;;;;;;6.18;5.43;;;;;;;;;;2551084;23;20000;-93
2023/08/04 08:01:36;;;;;;;5.53;5.03;;;;;;;;;;2572949;23;20182;-93
2023/08/04 08:02:37;;;;;;;5.43;4.90;;;;;;;;;;2552120;23;19994;-94
2023/08/04 08:03:37;;;;;;;5.32;4.82;;;;;;;;;;2548649;23;20390;-92
2023/08/04 08:04:38;;;;;;;9.05;4.78;;;;;;;;;;2549290;23;19997;-93
2023/08/04 08:05:38;;;;;;;5.82;4.80;;;;;;;;;;2549371;23;20012;-94
2023/08/04 08:06:39;;;;;;;6.35;4.82;;;;;;;;;;2549651;23;19994;-92
2023/08/04 08:07:39;;;;;;;5.18;4.78;;;;;;;;;;2549372;23;20005;-93
2023/08/04 08:08:39;;;;;;;5.63;4.75;;;;;;;;;;2549383;23;20113;-93
2023/08/04 08:09:40;;;;;;;5.47;4.95;;;;;;;;;;2549276;23;20017;-93
2023/08/04 08:10:40;;;;;;;5.75;5.25;;;;;;;;;;2544369;23;20020;-93
2023/08/04 08:11:40;;;;;;;5.88;5.20;;;;;;;;;;2532359;23;20519;-94
2023/08/04 08:12:41;;;;;;;5.88;5.28;;;;;;;;;;2531780;23;19994;-93
2023/08/04 08:13:41;;;;;;;5.25;4.75;;;;;;;;;;2548007;23;20022;-95
2023/08/04 08:14:42;;;;;;;5.22;4.78;;;;;;;;;;2543997;23;20026;-92
2023/08/04 08:15:42;;;;;;;5.80;4.82;;;;;;;;;;2532077;23;20008;-94
2023/08/04 08:16:42;;;;;;;5.57;5.07;;;;;;;;;;2556578;23;20008;-93
2023/08/04 08:17:48;;;;;;;6.25;5.00;;;;;;;;;;2573708;23;20020;-94
2023/08/04 08:18:49;;;;;;;5.50;5.00;;;;;;;;;;2549516;23;19993;-93
2023/08/04 08:19:49;;;;;;;6.20;4.88;;;;;;;;;;2550770;23;20033;-90
2023/08/04 08:20:50;;;;;;;5.55;5.05;;;;;;;;;;2541280;23;20364;-92
2023/08/04 08:21:50;;;;;;;5.57;5.03;;;;;;;;;;2546512;23;20006;-93
2023/08/04 08:22:50;;;;;;;5.60;4.80;;;;;;;;;;2549051;23;20427;-93
2023/08/04 08:23:51;;;;;;;8.40;4.97;;;;;;;;;;2544040;23;20102;-93
2023/08/04 08:24:55;;;;;;;5.15;4.63;;;;;;;;;;2531702;23;20053;-92
2023/08/04 08:25:56;;;;;;;5.28;4.78;;;;;;;;;;2532862;23;19994;-92
2023/08/04 08:26:56;;;;;;;5.97;4.88;;;;;;;;;;2531737;23;20057;-93
2023/08/04 08:27:56;;;;;;;4.53;4.13;;;;;;;;;;2547907;23;20403;-94
2023/08/04 08:28:57;;;;;;;6.55;4.68;;;;;;;;;;2543960;23;20348;-92
2023/08/04 08:29:57;;;;;;;5.57;4.70;;;;;;;;;;2547924;23;20017;-93
2023/08/04 08:30:58;;;;;;;5.32;4.75;;;;;;;;;;2549033;23;20001;-92
2023/08/04 08:31:58;;;;;;;5.40;4.90;;;;;;;;;;2548833;23;20401;-94
2023/08/04 08:32:58;;;;;;;4.88;4.47;;;;;;;;;;2543832;23;19997;-93
2023/08/04 08:33:59;;;;;;;5.70;4.70;;;;;;;;;;2531585;23;20077;-94
2023/08/04 08:34:59;;;;;;;5.40;5.00;;;;;;;;;;2111356;23;10001150;-93
2023/08/04 08:36:00;;;;;;;5.47;4.97;;;;;;;;;;2548370;23;20013;-92
2023/08/04 08:37:02;;;;;;;5.32;4.72;;;;;;;;;;2549263;23;20017;-92
2023/08/04 08:38:02;;;;;;;5.22;4.80;;;;;;;;;;2544261;23;20001;-93
2023/08/04 08:39:03;;;;;;;5.60;5.10;;;;;;;;;;2531621;23;20068;-93
2023/08/04 08:40:04;;;;;;;5.40;4.90;;;;;;;;;;2548033;23;20005;-91
2023/08/04 08:41:04;;;;;;;4.70;4.30;;;;;;;;;;2561694;23;20012;-94
2023/08/04 08:42:05;;;;;;;5.88;5.00;;;;;;;;;;2545083;23;19997;-92
2023/08/04 08:43:05;;;;;;;6.18;5.53;;;;;;;;;;2548429;23;20099;-93
2023/08/04 08:44:06;;;;;;;5.20;4.80;;;;;;;;;;2555837;23;20308;-92
2023/08/04 08:45:07;;;;;;;5.18;4.78;;;;;;;;;;2544005;23;20044;-95
2023/08/04 08:46:11;;;;;;;6.75;5.00;;;;;;;;;;2243276;23;10256557;-93
2023/08/04 08:47:14;;;;;;;5.10;4.70;;;;;;;;;;2549033;23;20505;-92
2023/08/04 08:48:15;;;;;;;5.35;4.82;;;;;;;;;;2547178;23;20008;-92
2023/08/04 08:49:16;;;;;;;4.78;4.38;;;;;;;;;;2534352;23;20305;-93
2023/08/04 08:50:17;;;;;;;4.85;4.40;;;;;;;;;;2551381;23;20056;-92
2023/08/04 08:51:21;;;;;;;5.05;4.65;;;;;;;;;;2547187;23;20089;-93
2023/08/04 08:52:24;;;;;;;5.10;4.70;;;;;;;;;;2545021;23;19993;-93
2023/08/04 08:53:30;;;;;;;5.05;4.65;;;;;;;;;;2531931;23;20008;-93
2023/08/04 08:54:30;;;;;;;5.43;5.00;;;;;;;;;;2537228;23;20468;-95
2023/08/04 08:55:31;;;;;;;5.22;4.55;;;;;;;;;;2550353;23;20034;-96
2023/08/04 08:56:33;;;;;;;4.75;4.22;;;;;;;;;;2546313;23;20005;-95
2023/08/04 08:57:34;;;;;;;6.32;4.57;;;;;;;;;;2548565;23;20425;-92
2023/08/04 08:58:35;;;;;;;5.13;4.65;;;;;;;;;;2543596;23;20020;-93
2023/08/04 08:59:36;;;;;;;5.57;4.88;;;;;;;;;;2549313;23;19997;-92
2023/08/04 09:00:37;;;;;;;5.22;4.72;;;;;;;;;;2548471;23;19997;-92
2023/08/04 09:01:37;;;;;;;4.85;4.45;;;;;;;;;;2543372;23;20031;-91
2023/08/04 09:02:38;;;;;;;5.82;5.20;;;;;;;;;;2559824;23;20041;-91
2023/08/04 09:03:38;;;;;;;5.28;4.78;;;;;;;;;;2554389;23;20013;-92
2023/08/04 09:04:39;;;;;;;5.07;4.57;;;;;;;;;;2548565;23;19994;-92
2023/08/04 09:05:40;;;;;;;5.35;4.85;;;;;;;;;;2543323;23;20005;-93
2023/08/04 09:06:41;;;;;;;5.47;4.80;;;;;;;;;;2536630;23;19994;-93
2023/08/04 09:07:41;;;;;;;6.97;4.60;;;;;;;;;;2539847;23;20113;-90
2023/08/04 09:08:41;;;;;;;5.03;4.38;;;;;;;;;;2536940;23;20060;-92
2023/08/04 09:09:42;;;;;;;5.93;5.32;;;;;;;;;;2548135;23;20069;-93
2023/08/04 09:10:44;;;;;;;5.55;5.05;;;;;;;;;;2548975;23;20031;-92
2023/08/04 09:11:45;;;;;;;5.88;5.35;;;;;;;;;;2544867;23;20070;-91
2023/08/04 09:12:48;;;;;;;7.82;5.35;;;;;;;;;;2531692;23;20037;-94
2023/08/04 09:13:49;;;;;;;5.60;5.10;;;;;;;;;;2531586;23;20491;-92
2023/08/04 09:14:51;;;;;;;4.97;4.57;;;;;;;;;;2531494;23;20026;-91
2023/08/04 09:26:22;;;;;;;6.60;5.50;;;;;;;;;;2475441;24;20488;-91
2023/08/04 09:27:38;;;;;;;5.45;5.00;;;;;;;;;;2462784;23;20000;-91
2023/08/04 09:28:38;;;;;;;5.57;4.97;;;;;;;;;;2494765;23;20023;-92
2023/08/04 09:30:30;;;;;;;5.65;4.70;;;;;;;;;;2560235;23;20007;-92
2023/08/04 09:39:30;;;;;;;5.07;4.68;;;;;;;;;;2546417;23;20084;-92
2023/08/04 09:41:21;;;;;;;4.65;4.32;;;;;;;;;;2547462;23;20037;-92
2023/08/04 09:42:23;;;;;;;;;;;;;;;;;;2500038;23;20031;-94
2023/08/04 09:43:24;;;;;;;5.05;4.65;;;;;;;;;;2498569;23;19949;-93
2023/08/04 09:44:36;;;;;;;6.35;5.00;;;;;;;;;;2517443;23;20072;-93
2023/08/04 09:45:37;;;;;;;5.22;4.70;;;;;;;;;;2549094;23;20056;-92
2023/08/04 09:46:49;;;;;;;5.47;4.97;;;;;;;;;;2542936;23;20175;-92
2023/08/04 09:47:51;;;;;;;5.93;5.43;;;;;;;;;;2510799;23;20125;-93
2023/08/04 09:48:56;;;;;;;5.03;4.63;;;;;;;;;;2547491;23;20061;-91
2023/08/04 09:50:45;;;;;;;5.75;5.25;;;;;;;;;;2532070;23;20002;-93
2023/08/04 09:52:13;;;;;;;5.60;4.38;;;;;;;;;;2543749;23;20001;-92
2023/08/04 09:57:05;;;;;;;5.30;4.80;;;;;;;;;;2550532;23;20020;-92
2023/08/04 10:02:09;;;;;;;5.35;4.90;;;;;;;;;;2511040;23;20006;-93
2023/08/04 10:03:10;;;;;;;5.30;4.70;;;;;;;;;;2511184;23;20465;-91
2023/08/04 10:04:11;;;;;;;6.38;4.97;;;;;;;;;;2508561;23;20352;-92
2023/08/04 10:05:37;;;;;;;5.78;5.28;;;;;;;;;;2506867;23;19999;-92
2023/08/04 10:06:51;;;;;;;5.38;4.97;;;;;;;;;;2511419;23;20556;-91
2023/08/04 10:08:10;;;;;;;5.30;4.80;;;;;;;;;;1454800;23;10021833;-92
2023/08/04 10:09:12;;;;;;;6.00;4.95;;;;;;;;;;2573519;23;20194;-91
2023/08/04 10:10:13;;;;;;;6.88;5.05;;;;;;;;;;2573682;23;19993;-92
2023/08/04 10:16:18;;;;;;;5.43;4.93;;;;;;;;;;2506082;23;20458;-90
2023/08/04 10:17:19;;;;;;;5.72;5.22;;;;;;;;;;2518533;23;20046;-91
2023/08/04 10:18:20;;;;;;;5.25;4.75;;;;;;;;;;2504324;23;20036;-91
2023/08/04 10:19:23;;;;;;;5.50;5.00;;;;;;;;;;2551160;23;19996;-92
2023/08/04 10:20:24;;;;;;;5.80;5.18;;;;;;;;;;2555421;23;20029;-91
2023/08/04 10:22:18;;;;;;;;;;;;;;;;;;;;;
2023/08/04 10:24:06;;;;;;;7.25;5.07;;;;;;;;;;2563779;23;20051;-91
2023/08/04 10:25:16;;;;;;;5.90;5.10;;;;;;;;;;2550524;23;20150;-90
2023/08/04 10:26:17;;;;;;;7.83;5.23;;;;;;;;;;2555739;23;20024;-93
2023/08/04 10:27:19;;;;;;;8.00;5.40;;;;;;;;;;2559589;23;20244;-92
2023/08/04 10:28:21;;;;;;;6.07;5.05;;;;;;;;;;2555572;23;20339;-92
2023/08/04 10:29:32;;;;;;;5.72;5.22;;;;;;;;;;2559684;23;19997;-92
2023/08/04 10:30:35;;;;;;;7.15;5.47;;;;;;;;;;2555361;23;20009;-91
2023/08/04 10:31:56;;;;;;;6.47;5.75;;;;;;;;;;2555721;23;20089;-92
2023/08/04 10:33:12;;;;;;;5.88;5.38;;;;;;;;;;2564165;23;20000;-92
2023/08/04 10:34:29;;;;;;;5.95;5.32;;;;;;;;;;2555214;23;20055;-92
2023/08/04 10:35:29;;;;;;;6.82;6.13;;;;;;;;;;2546795;23;20439;-92
2023/08/04 10:36:30;;;;;;;5.78;5.25;;;;;;;;;;2543888;23;20001;-92
2023/08/04 10:37:44;;;;;;;6.28;5.68;;;;;;;;;;2556000;23;20037;-91
2023/08/04 10:38:50;;;;;;;7.22;6.40;;;;;;;;;;2562515;23;20112;-91
2023/08/04 10:39:56;;;;;;;6.30;5.70;;;;;;;;;;2555830;23;20454;-91
2023/08/04 10:41:06;;;;;;;5.40;4.88;;;;;;;;;;2550996;23;19993;-92
2023/08/04 10:42:24;;;;;;;5.82;5.32;;;;;;;;;;2572014;23;19997;-91
2023/08/04 10:43:24;;;;;;;5.65;5.15;;;;;;;;;;2556636;23;19989;-91
2023/08/04 10:44:46;;;;;;;6.15;5.55;;;;;;;;;;2560251;23;20012;-90
2023/08/04 10:46:02;;;;;;;7.55;5.75;;;;;;;;;;2557923;23;20347;-92
2023/08/04 10:47:06;;;;;;;5.88;5.28;;;;;;;;;;2565383;23;20490;-92
2023/08/04 10:48:06;;;;;;;6.20;5.60;;;;;;;;;;2557529;23;19997;-92
2023/08/04 10:49:09;;;;;;;6.13;5.53;;;;;;;;;;2565208;23;20049;-96
2023/08/04 10:50:10;;;;;;;6.50;5.88;;;;;;;;;;2575181;23;20066;-91
2023/08/04 10:51:11;;;;;;;6.05;5.47;;;;;;;;;;2575606;23;20004;-92
2023/08/04 10:52:11;;;;;;;5.93;5.28;;;;;;;;;;2556891;23;20095;-92
2023/08/04 10:53:12;;;;;;;6.50;5.30;;;;;;;;;;2557893;23;20081;-93
2023/08/04 10:54:41;;;;;;;6.20;5.60;;;;;;;;;;2559833;23;20033;-93
2023/08/04 10:55:55;;;;;;;6.13;5.53;;;;;;;;;;2551846;23;20008;-91
2023/08/04 10:57:08;;;;;;;13.35;10.88;;;;;;;;;;2560266;23;20013;-90
2023/08/04 10:58:33;;;;;;;6.22;5.63;;;;;;;;;;2556113;23;20126;-90
2023/08/04 10:59:40;;;;;;;6.00;5.47;;;;;;;;;;2562670;23;19996;-92
2023/08/04 11:00:44;;;;;;;6.40;5.82;;;;;;;;;;2128575;22;10263439;-91
2023/08/04 11:01:47;;;;;;;7.18;5.57;;;;;;;;;;2574077;23;19993;-92
2023/08/04 11:02:54;;;;;;;7.30;6.54;;;;;;;;;;2384739;23;10234560;-92
2023/08/04 11:03:54;;;;;;;8.75;5.45;;;;;;;;;;2574131;23;20201;-92
2023/08/04 11:04:56;;;;;;;7.38;6.22;;;;;;;;;;2576309;23;20056;-93
2023/08/04 11:05:56;;;;;;;6.45;5.80;;;;;;;;;;2559020;23;20001;-93
2023/08/04 11:06:58;;;;;;;8.23;5.78;;;;;;;;;;2561619;23;20019;-92
2023/08/04 11:07:58;;;;;;;7.75;6.05;;;;;;;;;;2558156;23;20001;-93
2023/08/04 11:09:00;;;;;;;7.30;6.07;;;;;;;;;;2563689;23;20000;-93
2023/08/04 11:10:06;;;;;;;6.45;5.78;;;;;;;;;;2559319;23;19997;-93
2023/08/04 11:11:06;;;;;;;8.13;6.53;;;;;;;;;;2560913;23;20001;-91
2023/08/04 11:12:08;;;;;;;6.85;6.25;;;;;;;;;;2548880;23;19997;-91
2023/08/04 11:13:11;;;;;;;7.18;6.35;;;;;;;;;;2545364;23;19993;-91
2023/08/04 11:14:30;;;;;;;6.90;6.20;;;;;;;;;;2563122;23;20001;-92
2023/08/04 11:15:42;;;;;;;6.80;6.10;;;;;;;;;;2575116;23;20067;-91
2023/08/04 11:16:45;;;;;;;7.30;6.10;;;;;;;;;;2574226;23;20087;-90
2023/08/04 11:18:34;;;;;;;6.70;6.10;;;;;;;;;;2575615;23;20075;-90
2023/08/04 11:19:34;;;;;;;6.60;5.78;;;;;;;;;;2565467;23;19989;-92
2023/08/04 11:20:35;;;;;;;6.90;6.20;;;;;;;;;;2570708;23;19989;-92
2023/08/04 11:21:36;;;;;;;7.00;5.93;;;;;;;;;;2568567;23;20007;-92
2023/08/04 11:22:37;;;;;;;5.85;5.25;;;;;;;;;;2561402;23;20403;-92
2023/08/04 11:23:38;;;;;;;8.40;5.82;;;;;;;;;;2557524;23;20032;-92
2023/08/04 11:24:38;;;;;;;6.30;5.70;;;;;;;;;;2543964;23;20001;-91
2023/08/04 11:25:40;;;;;;;6.72;6.00;;;;;;;;;;2561118;23;20371;-92
2023/08/04 11:26:40;;;;;;;6.68;6.03;;;;;;;;;;2571846;23;20084;-92
2023/08/04 11:27:41;;;;;;;7.97;6.15;;;;;;;;;;2576211;23;20061;-92
2023/08/04 11:28:42;;;;;;;6.13;5.43;;;;;;;;;;2561170;23;19997;-92
2023/08/04 11:29:43;;;;;;;7.28;5.68;;;;;;;;;;2544490;23;20177;-93
2023/08/04 11:30:43;;;;;;;6.07;5.50;;;;;;;;;;2561133;23;20466;-91
2023/08/04 11:31:46;;;;;;;8.00;5.78;;;;;;;;;;2570907;23;20015;-91
2023/08/04 11:32:51;;;;;;;5.97;5.47;;;;;;;;;;2568708;23;20111;-92
2023/08/04 11:33:52;;;;;;;8.48;6.20;;;;;;;;;;2572408;23;20048;-92
2023/08/04 11:34:55;;;;;;;9.55;6.40;;;;;;;;;;2555049;23;19997;-91
2023/08/04 11:35:55;;;;;;;6.85;6.25;;;;;;;;;;2559903;23;20016;-91
2023/08/04 11:36:56;;;;;;;5.90;5.00;;;;;;;;;;2571944;23;20426;-90
2023/08/04 11:37:57;;;;;;;6.40;5.80;;;;;;;;;;2572197;23;20016;-92
2023/08/04 11:38:57;;;;;;;6.70;6.07;;;;;;;;;;2572652;23;19992;-91
2023/08/04 11:39:57;;;;;;;6.75;6.10;;;;;;;;;;2572613;23;19997;-91
2023/08/04 11:41:00;;;;;;;7.03;5.72;;;;;;;;;;2555089;23;19997;-91
2023/08/04 11:42:02;;;;;;;6.57;5.78;;;;;;;;;;2559636;23;19996;-92
2023/08/04 11:43:02;;;;;;;7.32;5.30;;;;;;;;;;2555777;23;19997;-92
2023/08/04 11:44:04;;;;;;;5.95;5.35;;;;;;;;;;2110613;23;10186076;-92
2023/08/04 11:45:08;;;;;;;5.18;4.68;;;;;;;;;;2559895;23;20008;-91
2023/08/04 11:46:08;;;;;;;6.22;5.72;;;;;;;;;;2554905;23;20001;-91
2023/08/04 11:47:10;;;;;;;6.03;5.45;;;;;;;;;;2543047;23;20076;-92
2023/08/04 11:48:11;;;;;;;9.55;5.80;;;;;;;;;;2560159;23;20243;-91
2023/08/04 11:49:12;;;;;;;6.35;5.75;;;;;;;;;;2572848;23;20050;-91
2023/08/04 11:50:14;;;;;;;6.00;5.40;;;;;;;;;;2555040;23;20435;-91
2023/08/04 11:51:15;;;;;;;6.63;5.82;;;;;;;;;;2544386;23;20083;-93
2023/08/04 11:52:15;;;;;;;5.50;5.00;;;;;;;;;;2559667;23;20016;-93
2023/08/04 11:53:16;;;;;;;6.30;5.65;;;;;;;;;;2572859;23;20003;-92
2023/08/04 11:54:19;;;;;;;5.85;5.35;;;;;;;;;;2555514;23;20009;-93
2023/08/04 11:55:20;;;;;;;5.80;5.07;;;;;;;;;;2543346;23;20331;-94
2023/08/04 11:56:20;;;;;;;6.00;5.40;;;;;;;;;;2559405;23;19993;-93
2023/08/04 11:57:21;;;;;;;6.78;5.95;;;;;;;;;;2572613;23;19997;-90
2023/08/04 11:58:31;;;;;;;6.53;5.70;;;;;;;;;;2555551;23;19992;-91
2023/08/04 11:59:32;;;;;;;5.72;5.22;;;;;;;;;;2544904;23;19989;-92
2023/08/04 12:00:34;;;;;;;7.05;5.65;;;;;;;;;;2560102;23;19989;-93
2023/08/04 12:01:34;;;;;;;6.00;5.50;;;;;;;;;;2573391;23;19995;-94
2023/08/04 12:02:35;;;;;;;6.47;5.80;;;;;;;;;;2572851;23;19988;-93
2023/08/04 12:03:48;;;;;;;6.85;6.25;;;;;;;;;;2573091;23;19992;-93
2023/08/04 12:05:08;;;;;;;7.47;5.43;;;;;;;;;;2555253;23;20084;-93
2023/08/04 12:06:18;;;;;;;7.80;6.28;;;;;;;;;;2546917;23;20073;-93
2023/08/04 12:07:19;;;;;;;5.97;5.40;;;;;;;;;;2561280;23;20036;-92
2023/08/04 12:08:19;;;;;;;6.05;5.53;;;;;;;;;;2555136;23;20000;-92
2023/08/04 12:09:43;;;;;;;6.13;5.47;;;;;;;;;;2559250;23;20457;-92
2023/08/04 12:11:02;;;;;;;6.40;5.80;;;;;;;;;;2568097;23;20000;-92
2023/08/04 12:12:04;;;;;;;6.50;5.65;;;;;;;;;;2572946;23;20130;-92
2023/08/04 12:13:53;;;;;;;6.57;5.72;;;;;;;;;;2555717;23;19998;-91
2023/08/04 12:15:00;;;;;;;6.03;5.43;;;;;;;;;;2561576;23;20025;-90
2023/08/04 12:16:01;;;;;;;5.32;4.82;;;;;;;;;;2563218;23;20025;-90
2023/08/04 12:17:03;;;;;;;6.00;5.25;;;;;;;;;;2555887;23;20004;-91
2023/08/04 12:18:03;;;;;;;6.88;5.95;;;;;;;;;;2559814;23;20021;-91
2023/08/04 12:19:07;;;;;;;6.15;5.65;;;;;;;;;;2572888;23;20007;-91
2023/08/04 12:20:08;;;;;;;7.60;5.57;;;;;;;;;;2554682;23;20395;-92
2023/08/04 12:21:17;;;;;;;7.63;5.72;;;;;;;;;;2542784;23;20454;-92
2023/08/04 12:22:17;;;;;;;6.18;5.60;;;;;;;;;;2556402;23;20023;-91
2023/08/04 12:23:18;;;;;;;6.30;5.60;;;;;;;;;;2571667;23;19992;-92
2023/08/04 12:24:19;;;;;;;7.00;6.20;;;;;;;;;;2555035;23;19989;-92
2023/08/04 12:25:20;;;;;;;7.10;5.45;;;;;;;;;;2558791;23;20055;-92
2023/08/04 12:26:20;;;;;;;6.18;5.55;;;;;;;;;;2554513;23;20517;-92
2023/08/04 12:27:20;;;;;;;6.18;5.32;;;;;;;;;;2543358;23;20171;-91
2023/08/04 12:28:21;;;;;;;5.95;5.45;;;;;;;;;;2542667;23;20008;-92
2023/08/04 12:29:21;;;;;;;7.05;5.53;;;;;;;;;;2554844;23;20028;-92
2023/08/04 12:30:21;;;;;;;7.65;5.80;;;;;;;;;;2571999;23;20122;-91
2023/08/04 12:31:22;;;;;;;6.22;5.63;;;;;;;;;;2572344;23;19989;-91
2023/08/04 12:32:22;;;;;;;6.38;5.15;;;;;;;;;;2572098;23;19992;-91
2023/08/04 12:33:23;;;;;;;6.25;5.47;;;;;;;;;;2554841;23;20000;-92
2023/08/04 12:34:26;;;;;;;6.25;5.50;;;;;;;;;;2542549;23;19998;-92
2023/08/04 12:35:47;;;;;;;6.50;5.60;;;;;;;;;;2543251;23;20430;-92
2023/08/04 12:36:47;;;;;;;6.28;5.68;;;;;;;;;;2558855;23;20505;-91
2023/08/04 12:37:48;;;;;;;7.18;5.50;;;;;;;;;;2571918;23;19997;-91
2023/08/04 12:38:48;;;;;;;6.18;5.47;;;;;;;;;;2555453;23;20007;-92
2023/08/04 12:39:49;;;;;;;6.00;5.43;;;;;;;;;;2543412;23;20009;-91
2023/08/04 12:40:49;;;;;;;6.38;5.13;;;;;;;;;;2561407;23;20036;-92
2023/08/04 12:41:49;;;;;;;7.55;5.07;;;;;;;;;;2557180;23;20104;-92
2023/08/04 12:42:50;;;;;;;5.28;4.57;;;;;;;;;;2543706;23;19997;-91
2023/08/04 12:43:51;;;;;;;6.32;5.07;;;;;;;;;;2562095;23;20383;-92
2023/08/04 12:44:52;;;;;;;6.18;4.93;;;;;;;;;;2556351;23;20008;-91
2023/08/04 12:45:52;;;;;;;5.28;4.78;;;;;;;;;;2543543;23;20430;-91
2023/08/04 12:46:53;;;;;;;6.05;5.50;;;;;;;;;;2555746;23;20089;-91
2023/08/04 12:47:54;;;;;;;5.40;4.90;;;;;;;;;;2543375;23;20100;-91
2023/08/04 12:48:57;;;;;;;5.57;5.07;;;;;;;;;;2542746;23;20375;-93
2023/08/04 12:49:57;;;;;;;5.80;5.20;;;;;;;;;;2560009;23;20076;-93
2023/08/04 12:50:58;;;;;;;7.68;5.60;;;;;;;;;;2555126;23;20047;-92
2023/08/04 12:51:58;;;;;;;5.68;5.18;;;;;;;;;;2543172;23;20025;-92
2023/08/04 12:52:58;;;;;;;7.57;5.55;;;;;;;;;;2559577;23;20028;-92
2023/08/04 12:53:59;;;;;;;6.22;5.35;;;;;;;;;;2572781;23;20000;-92
2023/08/04 12:55:00;;;;;;;6.78;5.53;;;;;;;;;;2554986;23;20482;-92
2023/08/04 12:56:00;;;;;;;5.88;5.38;;;;;;;;;;2543185;23;20475;-92
2023/08/04 12:57:01;;;;;;;5.93;4.90;;;;;;;;;;2559996;23;20040;-91
2023/08/04 12:58:36;;;;;;;6.00;5.40;;;;;;;;;;2128339;23;10269160;-91
2023/08/04 12:59:52;;;;;;;6.22;5.63;;;;;;;;;;2572641;23;20438;-92
2023/08/04 13:00:53;;;;;;;6.30;5.03;;;;;;;;;;2578728;23;20044;-93
2023/08/04 13:02:29;;;;;;;5.75;5.18;;;;;;;;;;2564946;23;20155;-92
2023/08/04 13:03:30;;;;;;;6.07;5.47;;;;;;;;;;2551428;23;20037;-93
2023/08/04 13:04:31;;;;;;;6.00;5.50;;;;;;;;;;2543603;23;19996;-93
2023/08/04 13:05:42;;;;;;;8.50;7.63;;;;;;;;;;2559471;23;19996;-92
2023/08/04 13:06:49;;;;;;;5.95;5.45;;;;;;;;;;2555383;23;20029;-92
2023/08/04 13:08:24;;;;;;;6.45;5.55;;;;;;;;;;2568827;23;20082;-93
2023/08/04 13:09:24;;;;;;;5.85;5.30;;;;;;;;;;2537881;23;19998;-91
2023/08/04 13:10:32;;;;;;;6.03;5.47;;;;;;;;;;2543215;23;19993;-91
2023/08/04 13:11:32;;;;;;;5.75;5.07;;;;;;;;;;2561850;23;20047;-91
2023/08/04 13:12:33;;;;;;;5.78;5.28;;;;;;;;;;2526184;23;20124;-92
2023/08/04 13:13:33;;;;;;;6.75;5.47;;;;;;;;;;2572969;23;19992;-92
2023/08/04 13:14:33;;;;;;;7.13;5.65;;;;;;;;;;2555865;23;20006;-93
2023/08/04 13:15:34;;;;;;;6.50;5.90;;;;;;;;;;2560077;23;20012;-93
2023/08/04 13:16:34;;;;;;;5.70;5.15;;;;;;;;;;2555957;23;20016;-92
2023/08/04 13:17:35;;;;;;;5.80;5.15;;;;;;;;;;2543540;23;19993;-92
2023/08/04 13:18:35;;;;;;;6.35;5.75;;;;;;;;;;2560018;23;19993;-92
2023/08/04 13:19:35;;;;;;;6.28;5.57;;;;;;;;;;2555828;23;20019;-92
2023/08/04 13:20:39;;;;;;;6.03;5.40;;;;;;;;;;2555707;23;20084;-94
2023/08/04 13:21:40;;;;;;;5.80;5.30;;;;;;;;;;2572756;23;20046;-93
2023/08/04 13:22:40;;;;;;;5.90;5.40;;;;;;;;;;2556016;23;20029;-93